sensor_id;sensor_type;location;lat;lon;timestamp;P1;durP1;ratioP1;P2;durP2;ratioP2
68523;SDS011;55524;51.380;13.372;2022-08-21T00:01:54;63.88;;;37.00;;
68523;SDS011;55524;51.380;13.372;2022-08-21T00:04:21;64.22;;;36.28;;
68523;SDS011;55524;51.380;13.372;2022-08-21T00:06:47;64.40;;;37.15;;
68523;SDS011;55524;51.380;13.372;2022-08-21T00:09:17;59.70;;;36.22;;
68523;SDS011;55524;51.380;13.372;2022-08-21T00:11:44;57.97;;;34.33;;
68523;SDS011;55524;51.380;13.372;2022-08-21T00:14:11;54.78;;;34.80;;
68523;SDS011;55524;51.380;13.372;2022-08-21T00:16:38;52.13;;;32.63;;
68523;SDS011;55524;51.380;13.372;2022-08-21T00:19:05;53.38;;;33.78;;
68523;SDS011;55524;51.380;13.372;2022-08-21T00:21:33;51.63;;;31.95;;
68523;SDS011;55524;51.380;13.372;2022-08-21T00:24:00;49.58;;;30.85;;
68523;SDS011;55524;51.380;13.372;2022-08-21T00:26:27;53.22;;;32.08;;
68523;SDS011;55524;51.380;13.372;2022-08-21T00:28:53;46.67;;;30.65;;
68523;SDS011;55524;51.380;13.372;2022-08-21T00:31:19;48.83;;;31.13;;
68523;SDS011;55524;51.380;13.372;2022-08-21T00:33:45;51.08;;;31.95;;
68523;SDS011;55524;51.380;13.372;2022-08-21T00:36:12;49.65;;;30.58;;
68523;SDS011;55524;51.380;13.372;2022-08-21T00:38:39;49.35;;;31.17;;
68523;SDS011;55524;51.380;13.372;2022-08-21T00:41:06;47.72;;;30.05;;
68523;SDS011;55524;51.380;13.372;2022-08-21T00:43:35;47.83;;;30.92;;
68523;SDS011;55524;51.380;13.372;2022-08-21T00:46:03;48.13;;;31.02;;
68523;SDS011;55524;51.380;13.372;2022-08-21T00:48:30;48.40;;;31.10;;
68523;SDS011;55524;51.380;13.372;2022-08-21T00:50:58;46.63;;;30.50;;
68523;SDS011;55524;51.380;13.372;2022-08-21T00:53:31;49.25;;;31.60;;
68523;SDS011;55524;51.380;13.372;2022-08-21T00:56:00;49.80;;;31.23;;
68523;SDS011;55524;51.380;13.372;2022-08-21T00:58:28;43.58;;;29.52;;
68523;SDS011;55524;51.380;13.372;2022-08-21T01:00:56;44.03;;;30.20;;
68523;SDS011;55524;51.380;13.372;2022-08-21T01:03:24;46.92;;;30.60;;
68523;SDS011;55524;51.380;13.372;2022-08-21T01:05:51;47.65;;;29.90;;
68523;SDS011;55524;51.380;13.372;2022-08-21T01:08:17;42.85;;;28.58;;
68523;SDS011;55524;51.380;13.372;2022-08-21T01:10:45;46.38;;;29.90;;
68523;SDS011;55524;51.380;13.372;2022-08-21T01:13:13;47.20;;;29.67;;
68523;SDS011;55524;51.380;13.372;2022-08-21T01:15:44;45.80;;;30.27;;
68523;SDS011;55524;51.380;13.372;2022-08-21T01:18:12;43.72;;;29.23;;
68523;SDS011;55524;51.380;13.372;2022-08-21T01:20:42;43.95;;;28.77;;
68523;SDS011;55524;51.380;13.372;2022-08-21T01:23:10;45.53;;;28.30;;
68523;SDS011;55524;51.380;13.372;2022-08-21T01:25:37;42.60;;;27.50;;
68523;SDS011;55524;51.380;13.372;2022-08-21T01:28:11;40.17;;;26.75;;
68523;SDS011;55524;51.380;13.372;2022-08-21T01:30:39;45.00;;;27.25;;
68523;SDS011;55524;51.380;13.372;2022-08-21T01:33:07;38.75;;;27.05;;
68523;SDS011;55524;51.380;13.372;2022-08-21T01:35:33;40.80;;;26.98;;
68523;SDS011;55524;51.380;13.372;2022-08-21T01:37:59;41.53;;;27.02;;
68523;SDS011;55524;51.380;13.372;2022-08-21T01:40:26;41.30;;;27.23;;
68523;SDS011;55524;51.380;13.372;2022-08-21T01:42:52;35.78;;;26.45;;
68523;SDS011;55524;51.380;13.372;2022-08-21T01:45:19;38.30;;;27.27;;
68523;SDS011;55524;51.380;13.372;2022-08-21T01:47:46;40.55;;;27.77;;
68523;SDS011;55524;51.380;13.372;2022-08-21T01:50:16;40.15;;;25.98;;
68523;SDS011;55524;51.380;13.372;2022-08-21T01:52:44;35.35;;;25.23;;
68523;SDS011;55524;51.380;13.372;2022-08-21T01:55:11;34.70;;;24.52;;
68523;SDS011;55524;51.380;13.372;2022-08-21T01:57:38;34.20;;;24.50;;
68523;SDS011;55524;51.380;13.372;2022-08-21T02:00:05;34.38;;;25.42;;
68523;SDS011;55524;51.380;13.372;2022-08-21T02:02:36;34.22;;;24.88;;
68523;SDS011;55524;51.380;13.372;2022-08-21T02:05:03;31.33;;;23.38;;
68523;SDS011;55524;51.380;13.372;2022-08-21T02:07:43;31.50;;;22.65;;
68523;SDS011;55524;51.380;13.372;2022-08-21T02:10:13;31.08;;;22.35;;
68523;SDS011;55524;51.380;13.372;2022-08-21T02:12:43;27.75;;;20.65;;
68523;SDS011;55524;51.380;13.372;2022-08-21T02:15:09;25.08;;;19.92;;
68523;SDS011;55524;51.380;13.372;2022-08-21T02:20:21;27.15;;;19.48;;
68523;SDS011;55524;51.380;13.372;2022-08-21T02:22:57;24.92;;;19.63;;
68523;SDS011;55524;51.380;13.372;2022-08-21T02:25:24;24.98;;;18.80;;
68523;SDS011;55524;51.380;13.372;2022-08-21T02:27:53;25.02;;;19.40;;
68523;SDS011;55524;51.380;13.372;2022-08-21T02:30:22;26.48;;;18.65;;
68523;SDS011;55524;51.380;13.372;2022-08-21T02:32:50;23.75;;;18.25;;
68523;SDS011;55524;51.380;13.372;2022-08-21T02:35:16;24.92;;;18.52;;
68523;SDS011;55524;51.380;13.372;2022-08-21T02:37:49;25.02;;;19.52;;
68523;SDS011;55524;51.380;13.372;2022-08-21T02:40:22;23.27;;;17.67;;
68523;SDS011;55524;51.380;13.372;2022-08-21T02:42:50;22.85;;;18.58;;
68523;SDS011;55524;51.380;13.372;2022-08-21T02:45:17;23.20;;;17.73;;
68523;SDS011;55524;51.380;13.372;2022-08-21T02:47:49;25.23;;;18.02;;
68523;SDS011;55524;51.380;13.372;2022-08-21T02:50:18;24.35;;;17.63;;
68523;SDS011;55524;51.380;13.372;2022-08-21T02:52:47;23.45;;;17.38;;
68523;SDS011;55524;51.380;13.372;2022-08-21T02:55:14;23.23;;;15.98;;
68523;SDS011;55524;51.380;13.372;2022-08-21T02:57:40;25.08;;;16.42;;
68523;SDS011;55524;51.380;13.372;2022-08-21T03:00:07;19.95;;;15.75;;
68523;SDS011;55524;51.380;13.372;2022-08-21T03:02:35;19.33;;;16.40;;
68523;SDS011;55524;51.380;13.372;2022-08-21T03:05:02;23.40;;;15.98;;
68523;SDS011;55524;51.380;13.372;2022-08-21T03:07:29;21.63;;;16.65;;
68523;SDS011;55524;51.380;13.372;2022-08-21T03:09:55;19.23;;;15.55;;
68523;SDS011;55524;51.380;13.372;2022-08-21T03:12:22;18.90;;;14.23;;
68523;SDS011;55524;51.380;13.372;2022-08-21T03:14:49;19.75;;;15.63;;
68523;SDS011;55524;51.380;13.372;2022-08-21T03:17:15;19.60;;;15.27;;
68523;SDS011;55524;51.380;13.372;2022-08-21T03:19:41;19.10;;;15.15;;
68523;SDS011;55524;51.380;13.372;2022-08-21T03:22:08;23.63;;;15.20;;
68523;SDS011;55524;51.380;13.372;2022-08-21T03:24:34;18.33;;;14.27;;
68523;SDS011;55524;51.380;13.372;2022-08-21T03:27:00;15.32;;;13.73;;
68523;SDS011;55524;51.380;13.372;2022-08-21T03:29:26;18.23;;;13.43;;
68523;SDS011;55524;51.380;13.372;2022-08-21T03:31:53;19.83;;;14.15;;
68523;SDS011;55524;51.380;13.372;2022-08-21T03:34:19;15.52;;;13.48;;
68523;SDS011;55524;51.380;13.372;2022-08-21T03:36:46;14.57;;;13.13;;
68523;SDS011;55524;51.380;13.372;2022-08-21T03:39:14;17.05;;;13.15;;
68523;SDS011;55524;51.380;13.372;2022-08-21T03:41:41;18.98;;;13.55;;
68523;SDS011;55524;51.380;13.372;2022-08-21T03:44:07;14.38;;;12.90;;
68523;SDS011;55524;51.380;13.372;2022-08-21T03:46:33;16.55;;;12.93;;
68523;SDS011;55524;51.380;13.372;2022-08-21T03:49:00;15.00;;;13.25;;
68523;SDS011;55524;51.380;13.372;2022-08-21T03:51:26;15.82;;;13.70;;
68523;SDS011;55524;51.380;13.372;2022-08-21T03:53:52;18.55;;;14.50;;
68523;SDS011;55524;51.380;13.372;2022-08-21T03:56:19;14.98;;;13.40;;
68523;SDS011;55524;51.380;13.372;2022-08-21T03:58:45;16.40;;;13.90;;
68523;SDS011;55524;51.380;13.372;2022-08-21T04:01:11;15.57;;;13.43;;
68523;SDS011;55524;51.380;13.372;2022-08-21T04:03:38;14.02;;;12.68;;
68523;SDS011;55524;51.380;13.372;2022-08-21T04:06:04;16.55;;;12.05;;
68523;SDS011;55524;51.380;13.372;2022-08-21T04:08:31;16.65;;;12.80;;
68523;SDS011;55524;51.380;13.372;2022-08-21T04:10:57;14.40;;;12.45;;
68523;SDS011;55524;51.380;13.372;2022-08-21T04:13:24;18.05;;;13.45;;
68523;SDS011;55524;51.380;13.372;2022-08-21T04:15:53;15.55;;;13.57;;
68523;SDS011;55524;51.380;13.372;2022-08-21T04:18:20;16.08;;;13.75;;
68523;SDS011;55524;51.380;13.372;2022-08-21T04:20:47;16.80;;;13.45;;
68523;SDS011;55524;51.380;13.372;2022-08-21T04:23:16;14.68;;;12.93;;
68523;SDS011;55524;51.380;13.372;2022-08-21T04:25:45;15.10;;;13.07;;
68523;SDS011;55524;51.380;13.372;2022-08-21T04:28:12;17.35;;;12.90;;
68523;SDS011;55524;51.380;13.372;2022-08-21T04:30:38;14.98;;;13.27;;
68523;SDS011;55524;51.380;13.372;2022-08-21T04:33:05;17.50;;;13.18;;
68523;SDS011;55524;51.380;13.372;2022-08-21T04:35:31;16.08;;;14.00;;
68523;SDS011;55524;51.380;13.372;2022-08-21T04:37:57;17.40;;;13.63;;
68523;SDS011;55524;51.380;13.372;2022-08-21T04:40:25;19.20;;;13.82;;
68523;SDS011;55524;51.380;13.372;2022-08-21T04:43:00;17.42;;;14.30;;
68523;SDS011;55524;51.380;13.372;2022-08-21T04:45:32;15.18;;;13.57;;
68523;SDS011;55524;51.380;13.372;2022-08-21T04:48:01;19.10;;;13.95;;
68523;SDS011;55524;51.380;13.372;2022-08-21T04:54:02;17.05;;;12.35;;
68523;SDS011;55524;51.380;13.372;2022-08-21T04:56:59;14.43;;;12.43;;
68523;SDS011;55524;51.380;13.372;2022-08-21T04:59:35;16.73;;;12.77;;
68523;SDS011;55524;51.380;13.372;2022-08-21T05:02:08;14.13;;;12.45;;
68523;SDS011;55524;51.380;13.372;2022-08-21T05:04:36;17.25;;;11.88;;
68523;SDS011;55524;51.380;13.372;2022-08-21T05:07:10;17.52;;;11.43;;
68523;SDS011;55524;51.380;13.372;2022-08-21T05:09:43;19.40;;;12.40;;
68523;SDS011;55524;51.380;13.372;2022-08-21T05:12:10;13.07;;;10.90;;
68523;SDS011;55524;51.380;13.372;2022-08-21T05:14:36;17.48;;;11.45;;
68523;SDS011;55524;51.380;13.372;2022-08-21T05:17:02;12.60;;;10.38;;
68523;SDS011;55524;51.380;13.372;2022-08-21T05:19:29;12.75;;;10.07;;
68523;SDS011;55524;51.380;13.372;2022-08-21T05:21:56;31.40;;;11.73;;
68523;SDS011;55524;51.380;13.372;2022-08-21T05:24:23;12.07;;;10.43;;
68523;SDS011;55524;51.380;13.372;2022-08-21T05:26:49;12.82;;;10.10;;
68523;SDS011;55524;51.380;13.372;2022-08-21T05:29:16;15.23;;;10.73;;
68523;SDS011;55524;51.380;13.372;2022-08-21T05:31:43;13.10;;;9.63;;
68523;SDS011;55524;51.380;13.372;2022-08-21T05:34:10;12.38;;;10.68;;
68523;SDS011;55524;51.380;13.372;2022-08-21T05:36:37;15.13;;;10.75;;
68523;SDS011;55524;51.380;13.372;2022-08-21T05:39:03;12.35;;;10.75;;
68523;SDS011;55524;51.380;13.372;2022-08-21T05:41:29;14.20;;;10.13;;
68523;SDS011;55524;51.380;13.372;2022-08-21T05:43:55;17.80;;;11.20;;
68523;SDS011;55524;51.380;13.372;2022-08-21T05:46:22;11.52;;;10.32;;
68523;SDS011;55524;51.380;13.372;2022-08-21T05:48:48;15.05;;;10.13;;
68523;SDS011;55524;51.380;13.372;2022-08-21T05:51:14;13.27;;;10.30;;
68523;SDS011;55524;51.380;13.372;2022-08-21T05:53:42;16.80;;;10.07;;
68523;SDS011;55524;51.380;13.372;2022-08-21T05:56:09;14.85;;;10.27;;
68523;SDS011;55524;51.380;13.372;2022-08-21T05:58:37;10.20;;;9.05;;
68523;SDS011;55524;51.380;13.372;2022-08-21T06:01:04;18.55;;;9.80;;
68523;SDS011;55524;51.380;13.372;2022-08-21T06:03:32;23.50;;;10.43;;
68523;SDS011;55524;51.380;13.372;2022-08-21T06:06:01;10.73;;;9.23;;
68523;SDS011;55524;51.380;13.372;2022-08-21T06:08:28;16.10;;;9.40;;
68523;SDS011;55524;51.380;13.372;2022-08-21T06:10:55;13.05;;;9.05;;
68523;SDS011;55524;51.380;13.372;2022-08-21T06:13:23;10.45;;;9.00;;
68523;SDS011;55524;51.380;13.372;2022-08-21T06:15:59;9.50;;;8.35;;
68523;SDS011;55524;51.380;13.372;2022-08-21T06:18:28;19.92;;;10.05;;
68523;SDS011;55524;51.380;13.372;2022-08-21T06:20:54;24.60;;;9.35;;
68523;SDS011;55524;51.380;13.372;2022-08-21T06:23:20;9.15;;;8.23;;
68523;SDS011;55524;51.380;13.372;2022-08-21T06:25:46;10.52;;;8.23;;
68523;SDS011;55524;51.380;13.372;2022-08-21T06:28:13;10.38;;;8.05;;
68523;SDS011;55524;51.380;13.372;2022-08-21T06:30:39;10.57;;;7.28;;
68523;SDS011;55524;51.380;13.372;2022-08-21T06:33:05;11.73;;;7.38;;
68523;SDS011;55524;51.380;13.372;2022-08-21T06:35:32;12.50;;;8.25;;
68523;SDS011;55524;51.380;13.372;2022-08-21T06:37:59;13.65;;;7.60;;
68523;SDS011;55524;51.380;13.372;2022-08-21T06:40:26;11.15;;;7.13;;
68523;SDS011;55524;51.380;13.372;2022-08-21T06:42:53;10.27;;;7.25;;
68523;SDS011;55524;51.380;13.372;2022-08-21T06:45:20;7.97;;;7.05;;
68523;SDS011;55524;51.380;13.372;2022-08-21T06:47:46;8.63;;;5.93;;
68523;SDS011;55524;51.380;13.372;2022-08-21T06:50:13;7.25;;;5.72;;
68523;SDS011;55524;51.380;13.372;2022-08-21T06:52:39;11.82;;;7.20;;
68523;SDS011;55524;51.380;13.372;2022-08-21T06:55:06;7.45;;;6.60;;
68523;SDS011;55524;51.380;13.372;2022-08-21T06:57:34;9.10;;;6.72;;
68523;SDS011;55524;51.380;13.372;2022-08-21T07:00:02;14.30;;;7.13;;
68523;SDS011;55524;51.380;13.372;2022-08-21T07:02:29;10.93;;;6.65;;
68523;SDS011;55524;51.380;13.372;2022-08-21T07:04:56;8.93;;;6.90;;
68523;SDS011;55524;51.380;13.372;2022-08-21T07:07:23;10.07;;;6.63;;
68523;SDS011;55524;51.380;13.372;2022-08-21T07:09:49;10.85;;;6.72;;
68523;SDS011;55524;51.380;13.372;2022-08-21T07:12:15;11.20;;;7.93;;
68523;SDS011;55524;51.380;13.372;2022-08-21T07:14:41;8.98;;;6.40;;
68523;SDS011;55524;51.380;13.372;2022-08-21T07:17:08;7.57;;;6.78;;
68523;SDS011;55524;51.380;13.372;2022-08-21T07:19:34;12.00;;;7.38;;
68523;SDS011;55524;51.380;13.372;2022-08-21T07:22:01;8.23;;;6.20;;
68523;SDS011;55524;51.380;13.372;2022-08-21T07:24:27;6.75;;;5.78;;
68523;SDS011;55524;51.380;13.372;2022-08-21T07:26:54;12.27;;;6.07;;
68523;SDS011;55524;51.380;13.372;2022-08-21T07:29:20;9.73;;;5.57;;
68523;SDS011;55524;51.380;13.372;2022-08-21T07:31:46;9.32;;;5.45;;
68523;SDS011;55524;51.380;13.372;2022-08-21T07:34:13;6.80;;;4.97;;
68523;SDS011;55524;51.380;13.372;2022-08-21T07:36:39;9.75;;;4.85;;
68523;SDS011;55524;51.380;13.372;2022-08-21T07:39:06;15.50;;;5.63;;
68523;SDS011;55524;51.380;13.372;2022-08-21T07:41:33;11.57;;;5.32;;
68523;SDS011;55524;51.380;13.372;2022-08-21T07:44:00;8.50;;;4.53;;
68523;SDS011;55524;51.380;13.372;2022-08-21T07:46:26;10.88;;;4.78;;
68523;SDS011;55524;51.380;13.372;2022-08-21T07:48:53;18.88;;;5.43;;
68523;SDS011;55524;51.380;13.372;2022-08-21T07:51:20;12.68;;;3.60;;
68523;SDS011;55524;51.380;13.372;2022-08-21T07:53:52;8.07;;;3.50;;
68523;SDS011;55524;51.380;13.372;2022-08-21T07:56:20;6.95;;;3.42;;
68523;SDS011;55524;51.380;13.372;2022-08-21T07:58:47;9.73;;;3.40;;
68523;SDS011;55524;51.380;13.372;2022-08-21T08:01:14;6.32;;;3.17;;
68523;SDS011;55524;51.380;13.372;2022-08-21T08:03:41;4.10;;;2.50;;
68523;SDS011;55524;51.380;13.372;2022-08-21T08:06:07;5.60;;;2.40;;
68523;SDS011;55524;51.380;13.372;2022-08-21T08:08:37;4.07;;;2.20;;
68523;SDS011;55524;51.380;13.372;2022-08-21T08:11:05;6.35;;;2.42;;
68523;SDS011;55524;51.380;13.372;2022-08-21T08:13:47;8.15;;;3.30;;
68523;SDS011;55524;51.380;13.372;2022-08-21T08:16:16;78.03;;;9.43;;
68523;SDS011;55524;51.380;13.372;2022-08-21T08:18:43;9.02;;;3.03;;
68523;SDS011;55524;51.380;13.372;2022-08-21T08:21:10;4.95;;;2.63;;
68523;SDS011;55524;51.380;13.372;2022-08-21T08:23:37;8.60;;;2.40;;
68523;SDS011;55524;51.380;13.372;2022-08-21T08:26:04;3.45;;;2.05;;
68523;SDS011;55524;51.380;13.372;2022-08-21T08:28:31;6.20;;;2.40;;
68523;SDS011;55524;51.380;13.372;2022-08-21T08:30:59;7.63;;;2.00;;
68523;SDS011;55524;51.380;13.372;2022-08-21T08:33:26;3.78;;;1.70;;
68523;SDS011;55524;51.380;13.372;2022-08-21T08:35:53;7.20;;;1.95;;
68523;SDS011;55524;51.380;13.372;2022-08-21T08:38:20;4.20;;;2.08;;
68523;SDS011;55524;51.380;13.372;2022-08-21T08:40:53;5.53;;;1.50;;
68523;SDS011;55524;51.380;13.372;2022-08-21T08:43:37;3.15;;;1.60;;
68523;SDS011;55524;51.380;13.372;2022-08-21T08:46:06;6.43;;;1.92;;
68523;SDS011;55524;51.380;13.372;2022-08-21T08:48:53;5.93;;;2.13;;
68523;SDS011;55524;51.380;13.372;2022-08-21T08:54:21;8.20;;;1.70;;
68523;SDS011;55524;51.380;13.372;2022-08-21T08:57:07;10.10;;;1.65;;
68523;SDS011;55524;51.380;13.372;2022-08-21T08:59:51;4.65;;;2.03;;
68523;SDS011;55524;51.380;13.372;2022-08-21T09:04:52;3.67;;;1.55;;
68523;SDS011;55524;51.380;13.372;2022-08-21T09:07:25;6.93;;;1.60;;
68523;SDS011;55524;51.380;13.372;2022-08-21T09:12:39;13.75;;;2.67;;
68523;SDS011;55524;51.380;13.372;2022-08-21T09:18:30;2.65;;;1.48;;
68523;SDS011;55524;51.380;13.372;2022-08-21T09:28:35;5.28;;;1.60;;
68523;SDS011;55524;51.380;13.372;2022-08-21T09:36:42;7.22;;;1.50;;
68523;SDS011;55524;51.380;13.372;2022-08-21T09:39:22;2.53;;;1.30;;
68523;SDS011;55524;51.380;13.372;2022-08-21T09:41:58;6.70;;;1.45;;
68523;SDS011;55524;51.380;13.372;2022-08-21T09:44:27;6.47;;;1.58;;
68523;SDS011;55524;51.380;13.372;2022-08-21T09:46:56;5.05;;;1.55;;
68523;SDS011;55524;51.380;13.372;2022-08-21T09:49:30;3.13;;;1.58;;
68523;SDS011;55524;51.380;13.372;2022-08-21T09:52:13;3.88;;;1.67;;
68523;SDS011;55524;51.380;13.372;2022-08-21T09:54:44;6.88;;;1.40;;
68523;SDS011;55524;51.380;13.372;2022-08-21T09:57:17;5.38;;;1.50;;
68523;SDS011;55524;51.380;13.372;2022-08-21T10:00:08;2.83;;;1.30;;
68523;SDS011;55524;51.380;13.372;2022-08-21T10:02:50;2.58;;;1.40;;
68523;SDS011;55524;51.380;13.372;2022-08-21T10:05:22;4.80;;;1.42;;
68523;SDS011;55524;51.380;13.372;2022-08-21T10:07:50;5.78;;;1.40;;
68523;SDS011;55524;51.380;13.372;2022-08-21T10:10:25;4.07;;;1.45;;
68523;SDS011;55524;51.380;13.372;2022-08-21T10:18:29;3.20;;;1.40;;
68523;SDS011;55524;51.380;13.372;2022-08-21T10:23:56;5.97;;;1.65;;
68523;SDS011;55524;51.380;13.372;2022-08-21T10:43:20;2.90;;;1.27;;
68523;SDS011;55524;51.380;13.372;2022-08-21T10:46:02;4.38;;;1.30;;
68523;SDS011;55524;51.380;13.372;2022-08-21T10:48:54;11.05;;;1.63;;
68523;SDS011;55524;51.380;13.372;2022-08-21T10:51:56;4.10;;;1.27;;
68523;SDS011;55524;51.380;13.372;2022-08-21T10:54:54;7.72;;;1.60;;
68523;SDS011;55524;51.380;13.372;2022-08-21T10:58:11;10.82;;;1.75;;
68523;SDS011;55524;51.380;13.372;2022-08-21T11:00:24;8.85;;;2.47;;
68523;SDS011;55524;51.380;13.372;2022-08-21T11:06:25;1.70;;;1.23;;
68523;SDS011;55524;51.380;13.372;2022-08-21T11:09:12;4.20;;;1.35;;
68523;SDS011;55524;51.380;13.372;2022-08-21T11:11:45;3.00;;;1.27;;
68523;SDS011;55524;51.380;13.372;2022-08-21T11:16:58;6.97;;;1.10;;
68523;SDS011;55524;51.380;13.372;2022-08-21T11:19:48;3.42;;;1.15;;
68523;SDS011;55524;51.380;13.372;2022-08-21T11:22:39;5.15;;;1.15;;
68523;SDS011;55524;51.380;13.372;2022-08-21T11:25:21;3.88;;;1.20;;
68523;SDS011;55524;51.380;13.372;2022-08-21T11:28:00;7.63;;;1.73;;
68523;SDS011;55524;51.380;13.372;2022-08-21T11:30:31;6.63;;;1.40;;
68523;SDS011;55524;51.380;13.372;2022-08-21T11:35:58;4.82;;;1.30;;
68523;SDS011;55524;51.380;13.372;2022-08-21T11:44:56;2.80;;;1.20;;
68523;SDS011;55524;51.380;13.372;2022-08-21T11:47:48;3.50;;;1.20;;
68523;SDS011;55524;51.380;13.372;2022-08-21T11:50:36;6.03;;;1.42;;
68523;SDS011;55524;51.380;13.372;2022-08-21T11:53:08;4.40;;;1.27;;
68523;SDS011;55524;51.380;13.372;2022-08-21T11:58:44;4.22;;;1.40;;
68523;SDS011;55524;51.380;13.372;2022-08-21T12:01:28;7.57;;;1.60;;
68523;SDS011;55524;51.380;13.372;2022-08-21T12:06:35;5.38;;;1.38;;
68523;SDS011;55524;51.380;13.372;2022-08-21T12:17:16;3.25;;;1.42;;
68523;SDS011;55524;51.380;13.372;2022-08-21T12:19:45;3.40;;;1.45;;
68523;SDS011;55524;51.380;13.372;2022-08-21T12:22:21;3.83;;;1.38;;
68523;SDS011;55524;51.380;13.372;2022-08-21T12:25:03;9.40;;;1.65;;
68523;SDS011;55524;51.380;13.372;2022-08-21T12:28:02;3.28;;;1.25;;
68523;SDS011;55524;51.380;13.372;2022-08-21T12:33:03;5.03;;;1.40;;
68523;SDS011;55524;51.380;13.372;2022-08-21T12:35:43;6.37;;;1.33;;
68523;SDS011;55524;51.380;13.372;2022-08-21T12:40:48;3.45;;;1.42;;
68523;SDS011;55524;51.380;13.372;2022-08-21T12:43:21;6.40;;;1.27;;
68523;SDS011;55524;51.380;13.372;2022-08-21T12:45:56;6.78;;;2.08;;
68523;SDS011;55524;51.380;13.372;2022-08-21T12:51:24;3.28;;;1.20;;
68523;SDS011;55524;51.380;13.372;2022-08-21T12:53:57;3.95;;;1.13;;
68523;SDS011;55524;51.380;13.372;2022-08-21T12:56:29;2.30;;;1.23;;
68523;SDS011;55524;51.380;13.372;2022-08-21T12:59:02;5.70;;;1.50;;
68523;SDS011;55524;51.380;13.372;2022-08-21T13:01:38;4.07;;;1.27;;
68523;SDS011;55524;51.380;13.372;2022-08-21T13:04:15;3.75;;;1.20;;
68523;SDS011;55524;51.380;13.372;2022-08-21T13:06:52;4.97;;;1.30;;
68523;SDS011;55524;51.380;13.372;2022-08-21T13:09:25;3.83;;;1.38;;
68523;SDS011;55524;51.380;13.372;2022-08-21T13:11:53;3.50;;;1.10;;
68523;SDS011;55524;51.380;13.372;2022-08-21T13:14:25;5.15;;;1.40;;
68523;SDS011;55524;51.380;13.372;2022-08-21T13:16:58;4.07;;;1.00;;
68523;SDS011;55524;51.380;13.372;2022-08-21T13:19:27;12.65;;;2.20;;
68523;SDS011;55524;51.380;13.372;2022-08-21T13:21:56;5.53;;;1.30;;
68523;SDS011;55524;51.380;13.372;2022-08-21T13:29:22;4.13;;;1.23;;
68523;SDS011;55524;51.380;13.372;2022-08-21T13:31:59;2.33;;;1.40;;
68523;SDS011;55524;51.380;13.372;2022-08-21T13:34:35;3.83;;;1.10;;
68523;SDS011;55524;51.380;13.372;2022-08-21T13:37:06;3.95;;;1.40;;
68523;SDS011;55524;51.380;13.372;2022-08-21T13:39:36;10.27;;;1.50;;
68523;SDS011;55524;51.380;13.372;2022-08-21T13:42:04;3.92;;;1.27;;
68523;SDS011;55524;51.380;13.372;2022-08-21T13:44:39;4.65;;;1.23;;
68523;SDS011;55524;51.380;13.372;2022-08-21T13:47:09;3.10;;;1.30;;
68523;SDS011;55524;51.380;13.372;2022-08-21T13:49:48;3.75;;;1.30;;
68523;SDS011;55524;51.380;13.372;2022-08-21T13:52:21;2.10;;;1.30;;
68523;SDS011;55524;51.380;13.372;2022-08-21T13:55:00;6.10;;;1.50;;
68523;SDS011;55524;51.380;13.372;2022-08-21T13:57:34;4.13;;;1.33;;
68523;SDS011;55524;51.380;13.372;2022-08-21T14:00:20;3.30;;;1.35;;
68523;SDS011;55524;51.380;13.372;2022-08-21T14:05:25;3.00;;;1.33;;
68523;SDS011;55524;51.380;13.372;2022-08-21T14:10:36;5.38;;;1.30;;
68523;SDS011;55524;51.380;13.372;2022-08-21T14:13:14;12.77;;;1.33;;
68523;SDS011;55524;51.380;13.372;2022-08-21T14:15:58;3.75;;;1.30;;
68523;SDS011;55524;51.380;13.372;2022-08-21T14:18:27;2.97;;;1.20;;
68523;SDS011;55524;51.380;13.372;2022-08-21T14:21:08;4.68;;;1.42;;
68523;SDS011;55524;51.380;13.372;2022-08-21T14:23:35;2.93;;;1.30;;
68523;SDS011;55524;51.380;13.372;2022-08-21T14:26:02;2.75;;;1.05;;
68523;SDS011;55524;51.380;13.372;2022-08-21T14:28:32;4.32;;;1.30;;
68523;SDS011;55524;51.380;13.372;2022-08-21T14:31:13;5.25;;;1.50;;
68523;SDS011;55524;51.380;13.372;2022-08-21T14:33:43;3.20;;;1.30;;
68523;SDS011;55524;51.380;13.372;2022-08-21T14:36:10;6.15;;;1.60;;
68523;SDS011;55524;51.380;13.372;2022-08-21T14:38:38;2.20;;;1.30;;
68523;SDS011;55524;51.380;13.372;2022-08-21T14:41:21;8.88;;;1.60;;
68523;SDS011;55524;51.380;13.372;2022-08-21T14:43:51;5.60;;;1.23;;
68523;SDS011;55524;51.380;13.372;2022-08-21T14:46:26;4.13;;;1.25;;
68523;SDS011;55524;51.380;13.372;2022-08-21T14:48:55;3.20;;;1.25;;
68523;SDS011;55524;51.380;13.372;2022-08-21T14:51:22;4.72;;;1.42;;
68523;SDS011;55524;51.380;13.372;2022-08-21T14:53:48;4.07;;;1.45;;
68523;SDS011;55524;51.380;13.372;2022-08-21T14:56:14;4.53;;;1.35;;
68523;SDS011;55524;51.380;13.372;2022-08-21T14:58:42;3.60;;;1.30;;
68523;SDS011;55524;51.380;13.372;2022-08-21T15:01:11;10.40;;;1.50;;
68523;SDS011;55524;51.380;13.372;2022-08-21T15:03:39;4.40;;;1.48;;
68523;SDS011;55524;51.380;13.372;2022-08-21T15:06:05;8.90;;;1.20;;
68523;SDS011;55524;51.380;13.372;2022-08-21T15:08:33;6.57;;;1.20;;
68523;SDS011;55524;51.380;13.372;2022-08-21T15:11:00;12.45;;;1.45;;
68523;SDS011;55524;51.380;13.372;2022-08-21T15:13:28;9.60;;;1.52;;
68523;SDS011;55524;51.380;13.372;2022-08-21T15:15:56;13.43;;;1.85;;
68523;SDS011;55524;51.380;13.372;2022-08-21T15:18:24;3.97;;;1.30;;
68523;SDS011;55524;51.380;13.372;2022-08-21T15:20:52;4.47;;;1.35;;
68523;SDS011;55524;51.380;13.372;2022-08-21T15:23:18;3.78;;;1.30;;
68523;SDS011;55524;51.380;13.372;2022-08-21T15:25:46;19.88;;;2.25;;
68523;SDS011;55524;51.380;13.372;2022-08-21T15:28:13;6.15;;;1.58;;
68523;SDS011;55524;51.380;13.372;2022-08-21T15:30:42;3.72;;;1.33;;
68523;SDS011;55524;51.380;13.372;2022-08-21T15:33:10;3.88;;;1.30;;
68523;SDS011;55524;51.380;13.372;2022-08-21T15:35:37;8.15;;;1.90;;
68523;SDS011;55524;51.380;13.372;2022-08-21T15:38:04;5.35;;;1.45;;
68523;SDS011;55524;51.380;13.372;2022-08-21T15:40:31;5.85;;;1.52;;
68523;SDS011;55524;51.380;13.372;2022-08-21T15:42:59;8.75;;;1.90;;
68523;SDS011;55524;51.380;13.372;2022-08-21T15:45:27;5.15;;;1.30;;
68523;SDS011;55524;51.380;13.372;2022-08-21T15:47:54;2.20;;;1.25;;
68523;SDS011;55524;51.380;13.372;2022-08-21T15:50:21;26.60;;;2.65;;
68523;SDS011;55524;51.380;13.372;2022-08-21T15:52:48;5.75;;;1.45;;
68523;SDS011;55524;51.380;13.372;2022-08-21T15:55:15;13.25;;;1.85;;
68523;SDS011;55524;51.380;13.372;2022-08-21T15:57:43;9.55;;;1.70;;
68523;SDS011;55524;51.380;13.372;2022-08-21T16:02:44;16.55;;;2.38;;
68523;SDS011;55524;51.380;13.372;2022-08-21T16:05:13;6.00;;;2.25;;
68523;SDS011;55524;51.380;13.372;2022-08-21T16:07:41;11.65;;;1.67;;
68523;SDS011;55524;51.380;13.372;2022-08-21T16:10:09;7.43;;;1.35;;
68523;SDS011;55524;51.380;13.372;2022-08-21T16:12:37;5.38;;;1.38;;
68523;SDS011;55524;51.380;13.372;2022-08-21T16:15:09;6.45;;;1.40;;
68523;SDS011;55524;51.380;13.372;2022-08-21T16:17:38;4.32;;;1.27;;
68523;SDS011;55524;51.380;13.372;2022-08-21T16:20:07;6.88;;;1.70;;
68523;SDS011;55524;51.380;13.372;2022-08-21T16:22:37;6.85;;;1.55;;
68523;SDS011;55524;51.380;13.372;2022-08-21T16:25:04;17.25;;;2.35;;
68523;SDS011;55524;51.380;13.372;2022-08-21T16:27:31;18.92;;;2.38;;